AUA440 LEBB-LOWW
Flight info
| Callsign | AUA440 |
|---|---|
| Flight time | 2h 11m |
| Altitude | 36000 |
| Route | PPN3E PPN N995 LATEK DCT GONUP DCT TOU DCT GAI DCT MEN DCT NINUN G53 LTP N871 BADVI L725 INPUL DCT NEMAL NEMAL2W |
| Aircraft | A320/M-SDE3FGHIRWY/LB1 |
Departure
| Time | 2026-05-06 16:38 |
|---|---|
| Airport | Bilbao Airport (LEBB) |
Arrival
| Time | 2026-05-06 18:49 |
|---|---|
| Airport | Vienna International Airport (LOWW) |
| Time | Latitude | Longitude | Altitude | Speed | Heading |
|---|---|---|---|---|---|
| 2026-05-06 16:20 | 43.30465 | -2.90738 | 124 ft | 0 kts | 27° |
| 2026-05-06 16:28 | 43.30446 | -2.90752 | 124 ft | 4 kts | 32° |
| 2026-05-06 16:28 | 43.30424 | -2.90774 | 122 ft | 4 kts | 46° |
| 2026-05-06 16:28 | 43.30411 | -2.90802 | 122 ft | 4 kts | 93° |
| 2026-05-06 16:29 | 43.30412 | -2.90814 | 123 ft | 0 kts | 116° |
| 2026-05-06 16:32 | 43.30410 | -2.90808 | 123 ft | 3 kts | 116° |
| 2026-05-06 16:32 | 43.30392 | -2.90759 | 123 ft | 9 kts | 116° |
| 2026-05-06 16:32 | 43.30365 | -2.90683 | 124 ft | 8 kts | 116° |
| 2026-05-06 16:32 | 43.30338 | -2.90619 | 126 ft | 8 kts | 130° |
| 2026-05-06 16:33 | 43.30290 | -2.90569 | 126 ft | 8 kts | 146° |
| 2026-05-06 16:33 | 43.30247 | -2.90530 | 127 ft | 7 kts | 152° |
| 2026-05-06 16:33 | 43.30193 | -2.90549 | 126 ft | 9 kts | 207° |
| 2026-05-06 16:34 | 43.30104 | -2.90535 | 126 ft | 8 kts | 122° |
| 2026-05-06 16:34 | 43.30071 | -2.90446 | 123 ft | 13 kts | 117° |
| 2026-05-06 16:34 | 43.30024 | -2.90318 | 127 ft | 17 kts | 117° |
| 2026-05-06 16:34 | 43.29970 | -2.90171 | 127 ft | 17 kts | 116° |
| 2026-05-06 16:35 | 43.29918 | -2.90027 | 126 ft | 17 kts | 116° |
| 2026-05-06 16:35 | 43.29867 | -2.89889 | 126 ft | 16 kts | 116° |
| 2026-05-06 16:35 | 43.29822 | -2.89765 | 127 ft | 14 kts | 117° |
| 2026-05-06 16:35 | 43.29782 | -2.89659 | 124 ft | 12 kts | 117° |
| 2026-05-06 16:36 | 43.29749 | -2.89567 | 126 ft | 10 kts | 116° |
| 2026-05-06 16:36 | 43.29713 | -2.89496 | 127 ft | 9 kts | 149° |
| 2026-05-06 16:36 | 43.29661 | -2.89529 | 124 ft | 10 kts | 244° |
| 2026-05-06 16:36 | 43.29633 | -2.89628 | 125 ft | 12 kts | 240° |
| 2026-05-06 16:37 | 43.29622 | -2.89724 | 124 ft | 10 kts | 290° |
| 2026-05-06 16:37 | 43.29650 | -2.89803 | 124 ft | 11 kts | 296° |
| 2026-05-06 16:37 | 43.29767 | -2.90126 | 124 ft | 73 kts | 297° |
| 2026-05-06 16:37 | 43.30092 | -2.91014 | 127 ft | 132 kts | 296° |
| 2026-05-06 16:38 | 43.30570 | -2.92321 | 226 ft | 166 kts | 296° |
| 2026-05-06 16:38 | 43.31088 | -2.93711 | 833 ft | 162 kts | 296° |
| 2026-05-06 16:38 | 43.31600 | -2.95098 | 1390 ft | 168 kts | 297° |
| 2026-05-06 16:38 | 43.32163 | -2.96621 | 1693 ft | 185 kts | 298° |
| 2026-05-06 16:39 | 43.32865 | -2.98171 | 2051 ft | 201 kts | 314° |
| 2026-05-06 16:39 | 43.33932 | -2.99500 | 2614 ft | 211 kts | 320° |
| 2026-05-06 16:39 | 43.35045 | -3.00829 | 3387 ft | 212 kts | 319° |
| 2026-05-06 16:39 | 43.36127 | -3.02152 | 4152 ft | 212 kts | 318° |
| 2026-05-06 16:40 | 43.37230 | -3.03521 | 4862 ft | 215 kts | 317° |
| 2026-05-06 16:40 | 43.38339 | -3.04910 | 5583 ft | 216 kts | 317° |
| 2026-05-06 16:40 | 43.39470 | -3.06303 | 6257 ft | 221 kts | 322° |
| 2026-05-06 16:40 | 43.40938 | -3.07118 | 6628 ft | 242 kts | 357° |
| 2026-05-06 16:41 | 43.42622 | -3.06729 | 7208 ft | 253 kts | 21° |
| 2026-05-06 16:41 | 43.44060 | -3.05294 | 7889 ft | 262 kts | 48° |
| 2026-05-06 16:41 | 43.45196 | -3.03313 | 8709 ft | 265 kts | 51° |
| 2026-05-06 16:41 | 43.46322 | -3.01281 | 9482 ft | 269 kts | 51° |
| 2026-05-06 16:42 | 43.47456 | -2.99211 | 10185 ft | 273 kts | 51° |
| 2026-05-06 16:42 | 43.48601 | -2.97113 | 10855 ft | 276 kts | 51° |
| 2026-05-06 16:42 | 43.49761 | -2.94989 | 11544 ft | 279 kts | 53° |
| 2026-05-06 16:42 | 43.50670 | -2.92611 | 12197 ft | 284 kts | 72° |
| 2026-05-06 16:43 | 43.50983 | -2.89912 | 12806 ft | 291 kts | 90° |
| 2026-05-06 16:43 | 43.50613 | -2.87088 | 13080 ft | 308 kts | 113° |
| 2026-05-06 16:43 | 43.50026 | -2.85299 | 13436 ft | 312 kts | 116° |
| 2026-05-06 16:43 | 43.49107 | -2.82563 | 14046 ft | 317 kts | 115° |
| 2026-05-06 16:44 | 43.48191 | -2.79789 | 14652 ft | 320 kts | 115° |
| 2026-05-06 16:44 | 43.47275 | -2.76983 | 15255 ft | 322 kts | 114° |
| 2026-05-06 16:44 | 43.46356 | -2.74150 | 15863 ft | 325 kts | 114° |
| 2026-05-06 16:44 | 43.45432 | -2.71296 | 16445 ft | 327 kts | 114° |
| 2026-05-06 16:45 | 43.44180 | -2.67442 | 17219 ft | 332 kts | 114° |
| 2026-05-06 16:45 | 43.43553 | -2.65517 | 17623 ft | 334 kts | 114° |
| 2026-05-06 16:45 | 43.42598 | -2.62591 | 18227 ft | 337 kts | 114° |
| 2026-05-06 16:45 | 43.41633 | -2.59639 | 18761 ft | 339 kts | 114° |
| 2026-05-06 16:46 | 43.40660 | -2.56676 | 19257 ft | 342 kts | 114° |
| 2026-05-06 16:46 | 43.39674 | -2.53683 | 19743 ft | 345 kts | 114° |
| 2026-05-06 16:46 | 43.38678 | -2.50671 | 20252 ft | 347 kts | 114° |
| 2026-05-06 16:46 | 43.37684 | -2.47675 | 20748 ft | 350 kts | 114° |
| 2026-05-06 16:47 | 43.36658 | -2.44579 | 20940 ft | 363 kts | 114° |
| 2026-05-06 16:47 | 43.35592 | -2.41355 | 21074 ft | 377 kts | 114° |
| 2026-05-06 16:47 | 43.34488 | -2.38013 | 21208 ft | 390 kts | 114° |
| 2026-05-06 16:47 | 43.33344 | -2.34563 | 21340 ft | 403 kts | 114° |
| 2026-05-06 16:48 | 43.32163 | -2.31009 | 21573 ft | 413 kts | 114° |
| 2026-05-06 16:48 | 43.30970 | -2.27401 | 21970 ft | 417 kts | 113° |
| 2026-05-06 16:48 | 43.29858 | -2.23705 | 22399 ft | 421 kts | 110° |
| 2026-05-06 16:48 | 43.28843 | -2.19913 | 22835 ft | 424 kts | 109° |
| 2026-05-06 16:49 | 43.27886 | -2.16079 | 23267 ft | 426 kts | 108° |
| 2026-05-06 16:49 | 43.26942 | -2.12208 | 23668 ft | 429 kts | 108° |
| 2026-05-06 16:49 | 43.25985 | -2.08327 | 24022 ft | 431 kts | 108° |
| 2026-05-06 16:49 | 43.25000 | -2.04428 | 24378 ft | 433 kts | 109° |
| 2026-05-06 16:50 | 43.23987 | -2.00523 | 24717 ft | 435 kts | 109° |
| 2026-05-06 16:50 | 43.22952 | -1.96612 | 25055 ft | 437 kts | 110° |
| 2026-05-06 16:50 | 43.21916 | -1.92738 | 25385 ft | 439 kts | 110° |
| 2026-05-06 16:50 | 43.20860 | -1.88788 | 25695 ft | 442 kts | 109° |
| 2026-05-06 16:51 | 43.19804 | -1.84819 | 26006 ft | 444 kts | 109° |
| 2026-05-06 16:51 | 43.18745 | -1.80831 | 26309 ft | 447 kts | 109° |
| 2026-05-06 16:51 | 43.17680 | -1.76813 | 26604 ft | 449 kts | 109° |
| 2026-05-06 16:51 | 43.16611 | -1.72788 | 26926 ft | 451 kts | 109° |
| 2026-05-06 16:52 | 43.15535 | -1.68745 | 27241 ft | 452 kts | 109° |
| 2026-05-06 16:52 | 43.14455 | -1.64690 | 27526 ft | 455 kts | 109° |
| 2026-05-06 16:52 | 43.13369 | -1.60624 | 27811 ft | 456 kts | 110° |
| 2026-05-06 16:52 | 43.12273 | -1.56531 | 28124 ft | 458 kts | 110° |
| 2026-05-06 16:53 | 43.11177 | -1.52438 | 28399 ft | 460 kts | 109° |
| 2026-05-06 16:53 | 43.10074 | -1.48320 | 28656 ft | 462 kts | 109° |
| 2026-05-06 16:53 | 43.08965 | -1.44187 | 28906 ft | 463 kts | 109° |
| 2026-05-06 16:53 | 43.07851 | -1.40047 | 29144 ft | 465 kts | 109° |
| 2026-05-06 16:54 | 43.06729 | -1.35886 | 29392 ft | 466 kts | 109° |
| 2026-05-06 16:54 | 43.05616 | -1.31767 | 29621 ft | 468 kts | 109° |
| 2026-05-06 16:54 | 43.04485 | -1.27587 | 29834 ft | 469 kts | 110° |
| 2026-05-06 16:54 | 43.03350 | -1.23406 | 30095 ft | 469 kts | 110° |
| 2026-05-06 16:55 | 43.02214 | -1.19228 | 30347 ft | 469 kts | 110° |
| 2026-05-06 16:55 | 43.01074 | -1.15048 | 30535 ft | 470 kts | 110° |
| 2026-05-06 16:55 | 42.99928 | -1.10848 | 30682 ft | 473 kts | 110° |
| 2026-05-06 16:55 | 42.98778 | -1.06628 | 30842 ft | 475 kts | 111° |
| 2026-05-06 16:56 | 42.97622 | -1.02397 | 31038 ft | 476 kts | 111° |
| 2026-05-06 16:56 | 42.96459 | -0.98155 | 31261 ft | 477 kts | 111° |
| 2026-05-06 16:56 | 42.95293 | -0.93909 | 31477 ft | 478 kts | 111° |
| 2026-05-06 16:56 | 42.94129 | -0.89660 | 31687 ft | 478 kts | 111° |
| 2026-05-06 16:57 | 42.92962 | -0.85415 | 31893 ft | 479 kts | 111° |
| 2026-05-06 16:57 | 42.91786 | -0.81161 | 32102 ft | 479 kts | 111° |
| 2026-05-06 16:57 | 42.90616 | -0.76894 | 32335 ft | 480 kts | 109° |
| 2026-05-06 16:57 | 42.89789 | -0.72476 | 32518 ft | 483 kts | 99° |
| 2026-05-06 16:58 | 42.89527 | -0.67901 | 32683 ft | 485 kts | 89° |
| 2026-05-06 16:58 | 42.89840 | -0.63329 | 32869 ft | 485 kts | 78° |
| 2026-05-06 16:58 | 42.90716 | -0.58899 | 33048 ft | 484 kts | 68° |
| 2026-05-06 16:58 | 42.92126 | -0.54742 | 33246 ft | 482 kts | 58° |
| 2026-05-06 16:59 | 42.93785 | -0.50838 | 33437 ft | 483 kts | 57° |
| 2026-05-06 16:59 | 42.95468 | -0.46870 | 33638 ft | 484 kts | 57° |
| 2026-05-06 16:59 | 42.97150 | -0.42885 | 33816 ft | 484 kts | 58° |
| 2026-05-06 16:59 | 42.98825 | -0.38892 | 34016 ft | 485 kts | 58° |
| 2026-05-06 17:00 | 43.00501 | -0.34888 | 34217 ft | 486 kts | 58° |
| 2026-05-06 17:00 | 43.02178 | -0.30877 | 34430 ft | 486 kts | 58° |
| 2026-05-06 17:00 | 43.03846 | -0.26883 | 34737 ft | 482 kts | 58° |
| 2026-05-06 17:00 | 43.05507 | -0.22907 | 35003 ft | 481 kts | 58° |
| 2026-05-06 17:01 | 43.07163 | -0.18943 | 35251 ft | 480 kts | 58° |
| 2026-05-06 17:01 | 43.08814 | -0.14988 | 35439 ft | 479 kts | 58° |
| 2026-05-06 17:01 | 43.10467 | -0.11025 | 35620 ft | 479 kts | 58° |
| 2026-05-06 17:01 | 43.12117 | -0.07063 | 35811 ft | 479 kts | 58° |
| 2026-05-06 17:02 | 43.13763 | -0.03099 | 35961 ft | 480 kts | 58° |
| 2026-05-06 17:02 | 43.17063 | 0.04873 | 36006 ft | 481 kts | 59° |
| 2026-05-06 17:03 | 43.20361 | 0.12870 | 36003 ft | 482 kts | 59° |
| 2026-05-06 17:03 | 43.23657 | 0.20878 | 36008 ft | 481 kts | 59° |
| 2026-05-06 17:04 | 43.26934 | 0.28867 | 35994 ft | 480 kts | 59° |
| 2026-05-06 17:04 | 43.30182 | 0.36784 | 35989 ft | 480 kts | 59° |
| 2026-05-06 17:05 | 43.33460 | 0.44780 | 35985 ft | 480 kts | 59° |
| 2026-05-06 17:05 | 43.36728 | 0.52790 | 35973 ft | 481 kts | 59° |
| 2026-05-06 17:06 | 43.39991 | 0.60823 | 35971 ft | 481 kts | 59° |
| 2026-05-06 17:06 | 43.43242 | 0.68870 | 35982 ft | 481 kts | 59° |
| 2026-05-06 17:07 | 43.46485 | 0.76918 | 35980 ft | 481 kts | 59° |
| 2026-05-06 17:07 | 43.49732 | 0.84971 | 35976 ft | 480 kts | 59° |
| 2026-05-06 17:08 | 43.52977 | 0.93017 | 35969 ft | 481 kts | 59° |
| 2026-05-06 17:08 | 43.56210 | 1.01096 | 35969 ft | 481 kts | 60° |
| 2026-05-06 17:09 | 43.59429 | 1.09183 | 35976 ft | 481 kts | 60° |
| 2026-05-06 17:09 | 43.62650 | 1.17267 | 35988 ft | 481 kts | 60° |
| 2026-05-06 17:10 | 43.65848 | 1.25316 | 35992 ft | 481 kts | 60° |
| 2026-05-06 17:10 | 43.69282 | 1.33232 | 35991 ft | 479 kts | 52° |
| 2026-05-06 17:11 | 43.73252 | 1.40642 | 35983 ft | 479 kts | 52° |
| 2026-05-06 17:11 | 43.77212 | 1.48065 | 35976 ft | 479 kts | 52° |
| 2026-05-06 17:12 | 43.81173 | 1.55485 | 35960 ft | 479 kts | 52° |
| 2026-05-06 17:12 | 43.85125 | 1.62930 | 35957 ft | 480 kts | 52° |
| 2026-05-06 17:13 | 43.89076 | 1.70387 | 35952 ft | 480 kts | 52° |
| 2026-05-06 17:13 | 43.93018 | 1.77850 | 35952 ft | 480 kts | 52° |
| 2026-05-06 17:14 | 43.96941 | 1.85358 | 35950 ft | 480 kts | 53° |
| 2026-05-06 17:14 | 44.00720 | 1.92914 | 35942 ft | 481 kts | 54° |
| 2026-05-06 17:15 | 44.04489 | 2.00602 | 35957 ft | 481 kts | 54° |
| 2026-05-06 17:15 | 44.08270 | 2.08273 | 35952 ft | 481 kts | 54° |
| 2026-05-06 17:16 | 44.12068 | 2.15930 | 35959 ft | 481 kts | 54° |
| 2026-05-06 17:16 | 44.15872 | 2.23586 | 35955 ft | 481 kts | 54° |
| 2026-05-06 17:17 | 44.19660 | 2.31262 | 35953 ft | 481 kts | 54° |
| 2026-05-06 17:17 | 44.23433 | 2.38968 | 35955 ft | 481 kts | 54° |
| 2026-05-06 17:18 | 44.27206 | 2.46685 | 35959 ft | 481 kts | 54° |
| 2026-05-06 17:18 | 44.30979 | 2.54400 | 35954 ft | 481 kts | 54° |
| 2026-05-06 17:19 | 44.34726 | 2.62070 | 35951 ft | 481 kts | 54° |
| 2026-05-06 17:19 | 44.38486 | 2.69804 | 35941 ft | 481 kts | 55° |
| 2026-05-06 17:20 | 44.42237 | 2.77567 | 35951 ft | 482 kts | 55° |
| 2026-05-06 17:20 | 44.45984 | 2.85334 | 35952 ft | 482 kts | 55° |
| 2026-05-06 17:21 | 44.49734 | 2.93109 | 35955 ft | 481 kts | 55° |
| 2026-05-06 17:21 | 44.53490 | 3.00877 | 35948 ft | 482 kts | 55° |
| 2026-05-06 17:22 | 44.57232 | 3.08670 | 35928 ft | 482 kts | 56° |
| 2026-05-06 17:22 | 44.60935 | 3.16440 | 35940 ft | 482 kts | 57° |
| 2026-05-06 17:23 | 44.64388 | 3.24511 | 35932 ft | 482 kts | 60° |
| 2026-05-06 17:23 | 44.67577 | 3.32801 | 35934 ft | 482 kts | 62° |
| 2026-05-06 17:24 | 44.70776 | 3.41092 | 35930 ft | 482 kts | 61° |
| 2026-05-06 17:24 | 44.74056 | 3.49331 | 35921 ft | 482 kts | 60° |
| 2026-05-06 17:25 | 44.77354 | 3.57552 | 35925 ft | 482 kts | 60° |
| 2026-05-06 17:25 | 44.80619 | 3.65747 | 35912 ft | 482 kts | 60° |
| 2026-05-06 17:26 | 44.83884 | 3.74012 | 35911 ft | 482 kts | 60° |
| 2026-05-06 17:26 | 44.87146 | 3.82282 | 35910 ft | 483 kts | 61° |
| 2026-05-06 17:27 | 44.90402 | 3.90577 | 35898 ft | 484 kts | 61° |
| 2026-05-06 17:27 | 44.93658 | 3.98900 | 35907 ft | 484 kts | 61° |
| 2026-05-06 17:28 | 44.96840 | 4.07067 | 35913 ft | 484 kts | 61° |
| 2026-05-06 17:28 | 45.00087 | 4.15404 | 35916 ft | 484 kts | 61° |
| 2026-05-06 17:29 | 45.03296 | 4.23652 | 35905 ft | 484 kts | 61° |
| 2026-05-06 17:29 | 45.04092 | 4.25697 | 35902 ft | 484 kts | 61° |
| 2026-05-06 17:30 | 45.07308 | 4.34004 | 35901 ft | 485 kts | 61° |
| 2026-05-06 17:30 | 45.10537 | 4.42385 | 35906 ft | 485 kts | 61° |
| 2026-05-06 17:31 | 45.13759 | 4.50775 | 35920 ft | 485 kts | 61° |
| 2026-05-06 17:31 | 45.16973 | 4.59173 | 35915 ft | 484 kts | 62° |
| 2026-05-06 17:32 | 45.20183 | 4.67574 | 35902 ft | 485 kts | 62° |
| 2026-05-06 17:32 | 45.23387 | 4.75985 | 35902 ft | 485 kts | 62° |
| 2026-05-06 17:33 | 45.26590 | 4.84408 | 35899 ft | 485 kts | 62° |
| 2026-05-06 17:33 | 45.29788 | 4.92849 | 35928 ft | 485 kts | 62° |
| 2026-05-06 17:34 | 45.32969 | 5.01295 | 35930 ft | 484 kts | 62° |
| 2026-05-06 17:34 | 45.36149 | 5.09742 | 35916 ft | 484 kts | 62° |
| 2026-05-06 17:35 | 45.39332 | 5.18207 | 35909 ft | 485 kts | 62° |
| 2026-05-06 17:35 | 45.42483 | 5.26628 | 35919 ft | 485 kts | 62° |
| 2026-05-06 17:36 | 45.47223 | 5.39364 | 35932 ft | 485 kts | 60° |
| 2026-05-06 17:36 | 45.50538 | 5.45845 | 35923 ft | 484 kts | 45° |
| 2026-05-06 17:37 | 45.55508 | 5.52306 | 35908 ft | 484 kts | 41° |
| 2026-05-06 17:37 | 45.60505 | 5.58672 | 35907 ft | 485 kts | 41° |
| 2026-05-06 17:38 | 45.65522 | 5.65131 | 35916 ft | 485 kts | 41° |
| 2026-05-06 17:38 | 45.70537 | 5.71595 | 35915 ft | 485 kts | 41° |
| 2026-05-06 17:39 | 45.75572 | 5.78036 | 35921 ft | 485 kts | 41° |
| 2026-05-06 17:39 | 45.80611 | 5.84479 | 35919 ft | 485 kts | 41° |
| 2026-05-06 17:40 | 45.85628 | 5.90944 | 35936 ft | 485 kts | 41° |
| 2026-05-06 17:40 | 45.90607 | 5.97395 | 35904 ft | 486 kts | 41° |
| 2026-05-06 17:41 | 45.95632 | 6.03901 | 35907 ft | 486 kts | 42° |
| 2026-05-06 17:41 | 46.00654 | 6.10424 | 35928 ft | 487 kts | 42° |
| 2026-05-06 17:42 | 46.05671 | 6.16966 | 35928 ft | 486 kts | 42° |
| 2026-05-06 17:42 | 46.10684 | 6.23511 | 35932 ft | 486 kts | 42° |
| 2026-05-06 17:43 | 46.15693 | 6.30057 | 35934 ft | 486 kts | 42° |
| 2026-05-06 17:43 | 46.20693 | 6.36618 | 35929 ft | 486 kts | 42° |
| 2026-05-06 17:44 | 46.25688 | 6.43193 | 35905 ft | 486 kts | 43° |
| 2026-05-06 17:44 | 46.30696 | 6.49789 | 35908 ft | 487 kts | 43° |
| 2026-05-06 17:45 | 46.35707 | 6.56407 | 35910 ft | 488 kts | 43° |
| 2026-05-06 17:45 | 46.40714 | 6.63052 | 35918 ft | 488 kts | 43° |
| 2026-05-06 17:46 | 46.45528 | 6.69974 | 35918 ft | 487 kts | 52° |
| 2026-05-06 17:46 | 46.49754 | 6.77568 | 35919 ft | 487 kts | 52° |
| 2026-05-06 17:47 | 46.54022 | 6.85220 | 35913 ft | 487 kts | 52° |
| 2026-05-06 17:47 | 46.58288 | 6.92883 | 35898 ft | 488 kts | 52° |
| 2026-05-06 17:48 | 46.62563 | 7.00583 | 35891 ft | 490 kts | 52° |
| 2026-05-06 17:48 | 46.66847 | 7.08319 | 35893 ft | 491 kts | 52° |
| 2026-05-06 17:49 | 46.71136 | 7.16077 | 35903 ft | 492 kts | 52° |
| 2026-05-06 17:49 | 46.75431 | 7.23861 | 35905 ft | 492 kts | 52° |
| 2026-05-06 17:50 | 46.79712 | 7.31641 | 35910 ft | 491 kts | 52° |
| 2026-05-06 17:50 | 46.83953 | 7.39383 | 35864 ft | 492 kts | 52° |
| 2026-05-06 17:51 | 46.88233 | 7.47217 | 35868 ft | 493 kts | 52° |
| 2026-05-06 17:51 | 46.92501 | 7.55067 | 35897 ft | 494 kts | 52° |
| 2026-05-06 17:52 | 46.96762 | 7.62944 | 35911 ft | 493 kts | 53° |
| 2026-05-06 17:52 | 47.01016 | 7.70832 | 35913 ft | 493 kts | 53° |
| 2026-05-06 17:53 | 47.05279 | 7.78731 | 35913 ft | 493 kts | 53° |
| 2026-05-06 17:53 | 47.09508 | 7.86570 | 35908 ft | 493 kts | 53° |
| 2026-05-06 17:54 | 47.13709 | 7.94507 | 35924 ft | 491 kts | 57° |
| 2026-05-06 17:54 | 47.17346 | 8.03001 | 35928 ft | 490 kts | 59° |
| 2026-05-06 17:55 | 47.20966 | 8.11484 | 35925 ft | 490 kts | 59° |
| 2026-05-06 17:55 | 47.24578 | 8.19978 | 35923 ft | 489 kts | 59° |
| 2026-05-06 17:56 | 47.28176 | 8.28483 | 35918 ft | 489 kts | 61° |
| 2026-05-06 17:56 | 47.30758 | 8.37634 | 35891 ft | 482 kts | 80° |
| 2026-05-06 17:57 | 47.32014 | 8.47243 | 35902 ft | 481 kts | 83° |
| 2026-05-06 17:57 | 47.33277 | 8.56932 | 35905 ft | 481 kts | 82° |
| 2026-05-06 17:58 | 47.34543 | 8.66629 | 35908 ft | 482 kts | 82° |
| 2026-05-06 17:58 | 47.35788 | 8.76341 | 35883 ft | 482 kts | 83° |
| 2026-05-06 17:59 | 47.37006 | 8.86072 | 35888 ft | 482 kts | 83° |
| 2026-05-06 17:59 | 47.38223 | 8.95814 | 35888 ft | 483 kts | 83° |
| 2026-05-06 18:00 | 47.39445 | 9.05572 | 35883 ft | 483 kts | 83° |
| 2026-05-06 18:00 | 47.40654 | 9.15340 | 35888 ft | 484 kts | 83° |
| 2026-05-06 18:01 | 47.41220 | 9.25145 | 35873 ft | 477 kts | 95° |
| 2026-05-06 18:01 | 47.41133 | 9.34943 | 35883 ft | 477 kts | 95° |
| 2026-05-06 18:02 | 47.41051 | 9.44665 | 35879 ft | 477 kts | 95° |
| 2026-05-06 18:02 | 47.40957 | 9.54453 | 35894 ft | 476 kts | 95° |
| 2026-05-06 18:03 | 47.40855 | 9.64226 | 35868 ft | 476 kts | 95° |
| 2026-05-06 18:03 | 47.40770 | 9.73982 | 35883 ft | 475 kts | 95° |
| 2026-05-06 18:04 | 47.40706 | 9.83749 | 35894 ft | 475 kts | 95° |
| 2026-05-06 18:04 | 47.40631 | 9.93512 | 35900 ft | 475 kts | 95° |
| 2026-05-06 18:05 | 47.40535 | 10.03247 | 35858 ft | 474 kts | 95° |
| 2026-05-06 18:05 | 47.40429 | 10.12991 | 35878 ft | 475 kts | 95° |
| 2026-05-06 18:06 | 47.40322 | 10.22751 | 35880 ft | 475 kts | 95° |
| 2026-05-06 18:06 | 47.40211 | 10.32511 | 35886 ft | 475 kts | 95° |
| 2026-05-06 18:07 | 47.40092 | 10.42264 | 35877 ft | 475 kts | 94° |
| 2026-05-06 18:07 | 47.41025 | 10.51994 | 35858 ft | 486 kts | 75° |
| 2026-05-06 18:08 | 47.43319 | 10.61413 | 35852 ft | 488 kts | 72° |
| 2026-05-06 18:08 | 47.45616 | 10.70785 | 35855 ft | 489 kts | 73° |
| 2026-05-06 18:09 | 47.47929 | 10.80300 | 35844 ft | 489 kts | 73° |
| 2026-05-06 18:09 | 47.50201 | 10.89696 | 35864 ft | 489 kts | 73° |
| 2026-05-06 18:10 | 47.52479 | 10.99170 | 35815 ft | 488 kts | 73° |
| 2026-05-06 18:10 | 47.54751 | 11.08650 | 35826 ft | 489 kts | 73° |
| 2026-05-06 18:11 | 47.57031 | 11.18146 | 35818 ft | 489 kts | 73° |
| 2026-05-06 18:11 | 47.59304 | 11.27653 | 35828 ft | 490 kts | 73° |
| 2026-05-06 18:12 | 47.61571 | 11.37190 | 35831 ft | 490 kts | 73° |
| 2026-05-06 18:12 | 47.63741 | 11.46765 | 35798 ft | 489 kts | 76° |
| 2026-05-06 18:13 | 47.65668 | 11.56372 | 35810 ft | 489 kts | 77° |
| 2026-05-06 18:13 | 47.67561 | 11.66068 | 35808 ft | 489 kts | 77° |
| 2026-05-06 18:14 | 47.69504 | 11.75759 | 35806 ft | 489 kts | 76° |
| 2026-05-06 18:14 | 47.70487 | 11.80590 | 35671 ft | 488 kts | 76° |
| 2026-05-06 18:14 | 47.71443 | 11.85422 | 35375 ft | 487 kts | 77° |
| 2026-05-06 18:15 | 47.72361 | 11.90265 | 35128 ft | 488 kts | 78° |
| 2026-05-06 18:15 | 47.73253 | 11.95131 | 34881 ft | 489 kts | 79° |
| 2026-05-06 18:15 | 47.74052 | 12.00031 | 34640 ft | 489 kts | 81° |
| 2026-05-06 18:15 | 47.74753 | 12.04973 | 34389 ft | 489 kts | 83° |
| 2026-05-06 18:16 | 47.75397 | 12.09945 | 34146 ft | 491 kts | 83° |
| 2026-05-06 18:16 | 47.76026 | 12.14933 | 33922 ft | 492 kts | 83° |
| 2026-05-06 18:16 | 47.76669 | 12.19934 | 33664 ft | 493 kts | 83° |
| 2026-05-06 18:16 | 47.77334 | 12.24946 | 33379 ft | 494 kts | 84° |
| 2026-05-06 18:17 | 47.77718 | 12.29986 | 33105 ft | 490 kts | 89° |
| 2026-05-06 18:17 | 47.78000 | 12.35033 | 32848 ft | 489 kts | 89° |
| 2026-05-06 18:17 | 47.78516 | 12.45091 | 32789 ft | 488 kts | 90° |
| 2026-05-06 18:18 | 47.79006 | 12.55170 | 32802 ft | 489 kts | 90° |
| 2026-05-06 18:18 | 47.79498 | 12.65250 | 32815 ft | 489 kts | 90° |
| 2026-05-06 18:19 | 47.79997 | 12.75320 | 32799 ft | 490 kts | 90° |
| 2026-05-06 18:19 | 47.80485 | 12.85460 | 32823 ft | 492 kts | 91° |
| 2026-05-06 18:20 | 47.80962 | 12.95554 | 32821 ft | 492 kts | 91° |
| 2026-05-06 18:20 | 47.81435 | 13.05705 | 32767 ft | 492 kts | 91° |
| 2026-05-06 18:21 | 47.81896 | 13.15868 | 32749 ft | 492 kts | 91° |
| 2026-05-06 18:21 | 47.82357 | 13.26032 | 32754 ft | 492 kts | 91° |
| 2026-05-06 18:22 | 47.82803 | 13.36189 | 32749 ft | 492 kts | 91° |
| 2026-05-06 18:22 | 47.83232 | 13.46341 | 32744 ft | 491 kts | 91° |
| 2026-05-06 18:23 | 47.83657 | 13.56488 | 32748 ft | 491 kts | 91° |
| 2026-05-06 18:23 | 47.84080 | 13.66607 | 32365 ft | 486 kts | 92° |
| 2026-05-06 18:24 | 47.84285 | 13.71616 | 32099 ft | 483 kts | 92° |
| 2026-05-06 18:24 | 47.84483 | 13.76585 | 31830 ft | 481 kts | 91° |
| 2026-05-06 18:24 | 47.84611 | 13.79869 | 31661 ft | 480 kts | 92° |
| 2026-05-06 18:24 | 47.84801 | 13.84822 | 31408 ft | 478 kts | 92° |
| 2026-05-06 18:25 | 47.84992 | 13.89762 | 31149 ft | 477 kts | 92° |
| 2026-05-06 18:25 | 47.85179 | 13.94683 | 30902 ft | 475 kts | 92° |
| 2026-05-06 18:25 | 47.85364 | 13.99580 | 30648 ft | 474 kts | 92° |
| 2026-05-06 18:25 | 47.85546 | 14.04483 | 30403 ft | 473 kts | 92° |
| 2026-05-06 18:26 | 47.85727 | 14.09359 | 30134 ft | 470 kts | 92° |
| 2026-05-06 18:26 | 47.85909 | 14.14205 | 29890 ft | 467 kts | 92° |
| 2026-05-06 18:26 | 47.86087 | 14.19024 | 29603 ft | 465 kts | 91° |
| 2026-05-06 18:26 | 47.86257 | 14.23822 | 29321 ft | 463 kts | 92° |
| 2026-05-06 18:27 | 47.86424 | 14.28588 | 29037 ft | 460 kts | 92° |
| 2026-05-06 18:27 | 47.86589 | 14.33333 | 28756 ft | 457 kts | 92° |
| 2026-05-06 18:27 | 47.86753 | 14.38041 | 28370 ft | 453 kts | 92° |
| 2026-05-06 18:27 | 47.86911 | 14.42665 | 27778 ft | 451 kts | 92° |
| 2026-05-06 18:28 | 47.87070 | 14.47310 | 27236 ft | 446 kts | 92° |
| 2026-05-06 18:28 | 47.87224 | 14.51909 | 26660 ft | 443 kts | 92° |
| 2026-05-06 18:28 | 47.87372 | 14.56459 | 26160 ft | 438 kts | 92° |
| 2026-05-06 18:28 | 47.87517 | 14.60978 | 25634 ft | 434 kts | 91° |
| 2026-05-06 18:29 | 47.87660 | 14.65446 | 25131 ft | 431 kts | 91° |
| 2026-05-06 18:29 | 47.87804 | 14.69889 | 24647 ft | 427 kts | 91° |
| 2026-05-06 18:29 | 47.87946 | 14.74291 | 24135 ft | 424 kts | 91° |
| 2026-05-06 18:29 | 47.88084 | 14.78675 | 23652 ft | 422 kts | 91° |
| 2026-05-06 18:30 | 47.88216 | 14.83041 | 23115 ft | 420 kts | 91° |
| 2026-05-06 18:30 | 47.88343 | 14.87380 | 22606 ft | 418 kts | 91° |
| 2026-05-06 18:30 | 47.88468 | 14.91684 | 22101 ft | 415 kts | 91° |
| 2026-05-06 18:30 | 47.88594 | 14.95957 | 21573 ft | 412 kts | 91° |
| 2026-05-06 18:31 | 47.88718 | 15.00209 | 21086 ft | 410 kts | 91° |
| 2026-05-06 18:31 | 47.88841 | 15.04442 | 20576 ft | 407 kts | 91° |
| 2026-05-06 18:31 | 47.88959 | 15.08652 | 20070 ft | 406 kts | 91° |
| 2026-05-06 18:31 | 47.89072 | 15.12841 | 19547 ft | 404 kts | 91° |
| 2026-05-06 18:32 | 47.89185 | 15.17022 | 19040 ft | 403 kts | 91° |
| 2026-05-06 18:32 | 47.89300 | 15.21180 | 18525 ft | 399 kts | 91° |
| 2026-05-06 18:32 | 47.89415 | 15.25310 | 18015 ft | 398 kts | 91° |
| 2026-05-06 18:32 | 47.89525 | 15.29434 | 17468 ft | 397 kts | 91° |
| 2026-05-06 18:33 | 47.89633 | 15.33530 | 16989 ft | 395 kts | 91° |
| 2026-05-06 18:33 | 47.89755 | 15.37603 | 16518 ft | 391 kts | 90° |
| 2026-05-06 18:33 | 47.89894 | 15.41636 | 16044 ft | 389 kts | 91° |
| 2026-05-06 18:33 | 47.90040 | 15.45644 | 15668 ft | 385 kts | 90° |
| 2026-05-06 18:34 | 47.90184 | 15.49563 | 15304 ft | 381 kts | 89° |
| 2026-05-06 18:34 | 47.90325 | 15.53484 | 14927 ft | 377 kts | 92° |
| 2026-05-06 18:34 | 47.90458 | 15.57363 | 14568 ft | 374 kts | 91° |
| 2026-05-06 18:34 | 47.90584 | 15.61211 | 14212 ft | 370 kts | 90° |
| 2026-05-06 18:35 | 47.90704 | 15.65020 | 13849 ft | 367 kts | 91° |
| 2026-05-06 18:35 | 47.90821 | 15.68806 | 13488 ft | 365 kts | 89° |
| 2026-05-06 18:35 | 47.90936 | 15.72568 | 13084 ft | 362 kts | 91° |
| 2026-05-06 18:35 | 47.91051 | 15.76303 | 12699 ft | 358 kts | 90° |
| 2026-05-06 18:36 | 47.91163 | 15.80002 | 12305 ft | 356 kts | 89° |
| 2026-05-06 18:36 | 47.91273 | 15.83663 | 11922 ft | 352 kts | 92° |
| 2026-05-06 18:36 | 47.91381 | 15.87296 | 11534 ft | 349 kts | 91° |
| 2026-05-06 18:36 | 47.91489 | 15.90894 | 11159 ft | 346 kts | 90° |
| 2026-05-06 18:37 | 47.91771 | 15.94433 | 10864 ft | 343 kts | 77° |
| 2026-05-06 18:37 | 47.92731 | 15.97631 | 10666 ft | 336 kts | 56° |
| 2026-05-06 18:37 | 47.94299 | 16.00131 | 10464 ft | 327 kts | 36° |
| 2026-05-06 18:37 | 47.96267 | 16.01682 | 10239 ft | 315 kts | 16° |
| 2026-05-06 18:38 | 47.98379 | 16.02210 | 10001 ft | 304 kts | 356° |
| 2026-05-06 18:38 | 48.00418 | 16.01795 | 9760 ft | 298 kts | 341° |
| 2026-05-06 18:38 | 48.02431 | 16.00905 | 9508 ft | 298 kts | 340° |
| 2026-05-06 18:38 | 48.04419 | 16.00028 | 9243 ft | 298 kts | 339° |
| 2026-05-06 18:39 | 48.06398 | 15.99156 | 8968 ft | 294 kts | 339° |
| 2026-05-06 18:39 | 48.08344 | 15.98305 | 8716 ft | 288 kts | 340° |
| 2026-05-06 18:39 | 48.10240 | 15.97481 | 8515 ft | 280 kts | 340° |
| 2026-05-06 18:40 | 48.13859 | 15.95943 | 8145 ft | 264 kts | 341° |
| 2026-05-06 18:40 | 48.15596 | 15.95262 | 8005 ft | 253 kts | 340° |
| 2026-05-06 18:40 | 48.17284 | 15.94721 | 7880 ft | 246 kts | 353° |
| 2026-05-06 18:40 | 48.18946 | 15.95226 | 7731 ft | 247 kts | 21° |
| 2026-05-06 18:41 | 48.20492 | 15.96340 | 7465 ft | 246 kts | 25° |
| 2026-05-06 18:41 | 48.21994 | 15.97551 | 7165 ft | 245 kts | 33° |
| 2026-05-06 18:41 | 48.23143 | 15.99420 | 6878 ft | 245 kts | 56° |
| 2026-05-06 18:41 | 48.24025 | 16.01597 | 6630 ft | 243 kts | 60° |
| 2026-05-06 18:42 | 48.24858 | 16.03796 | 6379 ft | 242 kts | 60° |
| 2026-05-06 18:42 | 48.25691 | 16.05995 | 6139 ft | 244 kts | 60° |
| 2026-05-06 18:42 | 48.26401 | 16.08295 | 5887 ft | 242 kts | 73° |
| 2026-05-06 18:42 | 48.26688 | 16.10721 | 5613 ft | 232 kts | 103° |
| 2026-05-06 18:43 | 48.25997 | 16.12728 | 5419 ft | 208 kts | 146° |
| 2026-05-06 18:43 | 48.24922 | 16.14067 | 5348 ft | 201 kts | 137° |
| 2026-05-06 18:43 | 48.24293 | 16.15979 | 5218 ft | 208 kts | 116° |
| 2026-05-06 18:43 | 48.23711 | 16.17947 | 5086 ft | 205 kts | 122° |
| 2026-05-06 18:44 | 48.23087 | 16.19867 | 4989 ft | 204 kts | 122° |
| 2026-05-06 18:44 | 48.22469 | 16.21782 | 4977 ft | 204 kts | 122° |
| 2026-05-06 18:44 | 48.21850 | 16.23708 | 4886 ft | 205 kts | 122° |
| 2026-05-06 18:44 | 48.21231 | 16.25635 | 4656 ft | 205 kts | 122° |
| 2026-05-06 18:45 | 48.20614 | 16.27553 | 4396 ft | 204 kts | 122° |
| 2026-05-06 18:45 | 48.20007 | 16.29441 | 4133 ft | 203 kts | 122° |
| 2026-05-06 18:45 | 48.19398 | 16.31333 | 3856 ft | 200 kts | 123° |
| 2026-05-06 18:45 | 48.18796 | 16.33203 | 3572 ft | 197 kts | 123° |
| 2026-05-06 18:46 | 48.18203 | 16.35043 | 3320 ft | 194 kts | 124° |
| 2026-05-06 18:46 | 48.17619 | 16.36850 | 3061 ft | 192 kts | 123° |
| 2026-05-06 18:46 | 48.17040 | 16.38642 | 2801 ft | 190 kts | 123° |
| 2026-05-06 18:46 | 48.16470 | 16.40407 | 2547 ft | 186 kts | 123° |
| 2026-05-06 18:47 | 48.15917 | 16.42121 | 2303 ft | 180 kts | 122° |
| 2026-05-06 18:47 | 48.15375 | 16.43795 | 2035 ft | 176 kts | 126° |
| 2026-05-06 18:47 | 48.14855 | 16.45406 | 1792 ft | 165 kts | 127° |
| 2026-05-06 18:47 | 48.14389 | 16.46857 | 1591 ft | 147 kts | 126° |
| 2026-05-06 18:48 | 48.13956 | 16.48162 | 1396 ft | 135 kts | 125° |
| 2026-05-06 18:48 | 48.13552 | 16.49441 | 1201 ft | 133 kts | 125° |
| 2026-05-06 18:48 | 48.13157 | 16.50676 | 1041 ft | 133 kts | 124° |
| 2026-05-06 18:48 | 48.12742 | 16.51918 | 848 ft | 134 kts | 124° |
| 2026-05-06 18:49 | 48.12336 | 16.53171 | 661 ft | 132 kts | 122° |
| 2026-05-06 18:49 | 48.11940 | 16.54363 | 617 ft | 114 kts | 116° |
| 2026-05-06 18:49 | 48.11671 | 16.55200 | 618 ft | 64 kts | 116° |
| 2026-05-06 18:49 | 48.11532 | 16.55646 | 620 ft | 27 kts | 113° |
| 2026-05-06 18:50 | 48.11499 | 16.55915 | 617 ft | 27 kts | 89° |
| 2026-05-06 18:50 | 48.11509 | 16.56082 | 617 ft | 9 kts | 83° |
| 2026-05-06 18:50 | 48.11540 | 16.56135 | 624 ft | 1 kts | 33° |
| 2026-05-06 18:52 | 48.11541 | 16.56136 | 624 ft | 0 kts | 33° |
| 2026-05-06 18:52 | 48.11554 | 16.56165 | 620 ft | 9 kts | 66° |
| 2026-05-06 18:52 | 48.11535 | 16.56276 | 619 ft | 13 kts | 115° |
| 2026-05-06 18:52 | 48.11490 | 16.56413 | 612 ft | 17 kts | 116° |
| 2026-05-06 18:53 | 48.11437 | 16.56576 | 621 ft | 17 kts | 116° |
| 2026-05-06 18:53 | 48.11383 | 16.56742 | 625 ft | 18 kts | 115° |
| 2026-05-06 18:53 | 48.11329 | 16.56906 | 619 ft | 17 kts | 116° |
| 2026-05-06 18:53 | 48.11277 | 16.57066 | 622 ft | 18 kts | 116° |
| 2026-05-06 18:54 | 48.11230 | 16.57214 | 623 ft | 11 kts | 110° |
| 2026-05-06 18:54 | 48.11269 | 16.57300 | 617 ft | 12 kts | 26° |
| 2026-05-06 18:54 | 48.11344 | 16.57354 | 626 ft | 12 kts | 26° |
| 2026-05-06 18:54 | 48.11429 | 16.57414 | 613 ft | 15 kts | 25° |
| 2026-05-06 18:55 | 48.11521 | 16.57463 | 607 ft | 13 kts | 1° |
| 2026-05-06 18:55 | 48.11603 | 16.57432 | 619 ft | 11 kts | 344° |
| 2026-05-06 18:55 | 48.11688 | 16.57395 | 618 ft | 16 kts | 344° |
| 2026-05-06 18:55 | 48.11793 | 16.57351 | 603 ft | 12 kts | 340° |
| 2026-05-06 18:56 | 48.11838 | 16.57265 | 603 ft | 10 kts | 296° |
| 2026-05-06 18:56 | 48.11883 | 16.57184 | 601 ft | 10 kts | 318° |
| 2026-05-06 18:56 | 48.11919 | 16.57089 | 600 ft | 11 kts | 296° |
| 2026-05-06 18:56 | 48.11951 | 16.56992 | 599 ft | 11 kts | 296° |
| 2026-05-06 18:57 | 48.11986 | 16.56884 | 597 ft | 12 kts | 296° |
| 2026-05-06 18:57 | 48.12004 | 16.56780 | 596 ft | 9 kts | 239° |
| 2026-05-06 18:57 | 48.11950 | 16.56739 | 597 ft | 9 kts | 205° |
| 2026-05-06 18:57 | 48.11913 | 16.56716 | 599 ft | 2 kts | 200° |